Albion, Nebraska
Current Conditions -  °F | °C
As of 9:55 AM on Thursday 30 Oct 2014 (Local Time) from KBVN Reporting Station
Clear Clear  
Wind Chill: 50°   Ceiling: Unl
Heat Index: 50°   Visibility: 10mi
Dew Point: 37°   Wind: 12mph
Humidity: 60%   Direction: 320°NW
Pressure: 30.11"   Gusts: NA
Location:  41.69°N, 98°W
Report Text: KBVN 301455Z AUTO 32010KT 10SM CLR 10/03 A3011 RMK AO2 T01000026
Loading
Personal Weather Stations






























Interactive Weather Map New forecast layout! Learn more

10-Day Weather Forecast

Advertisements
Track Severe Weather on mobile